createdAt,value
2019-04-29T00:03:57.040Z,46.00
2019-04-29T00:08:02.745Z,46.50
2019-04-29T00:12:08.431Z,47.90
2019-04-29T00:16:25.654Z,46.90
2019-04-29T00:20:48.669Z,47.70
2019-04-29T00:24:54.318Z,47.50
2019-04-29T00:29:00.108Z,46.90
2019-04-29T00:33:06.382Z,46.90
2019-04-29T00:37:24.230Z,47.40
2019-04-29T00:41:57.696Z,47.80
2019-04-29T00:46:03.613Z,48.00
2019-04-29T00:50:11.035Z,47.80
2019-04-29T00:54:41.525Z,48.30
2019-04-29T00:58:51.288Z,47.80
2019-04-29T01:02:56.923Z,48.10
2019-04-29T01:07:02.601Z,48.00
2019-04-29T01:11:08.712Z,47.90
2019-04-29T01:15:14.434Z,48.50
2019-04-29T01:19:20.364Z,48.40
2019-04-29T01:23:26.052Z,48.60
2019-04-29T01:27:37.568Z,48.20
2019-04-29T01:31:43.290Z,48.40
2019-04-29T01:35:50.656Z,48.40
2019-04-29T01:40:09.127Z,48.20
2019-04-29T01:44:15.926Z,49.30
2019-04-29T01:48:21.583Z,48.30
2019-04-29T01:52:27.323Z,49.50
2019-04-29T01:56:33.049Z,49.30
2019-04-29T02:00:38.958Z,48.70
2019-04-29T02:04:44.543Z,48.60
2019-04-29T02:08:51.660Z,49.10
2019-04-29T02:12:57.356Z,49.50
2019-04-29T02:17:03.163Z,50.80
2019-04-29T02:21:09.389Z,49.90
2019-04-29T02:25:19.837Z,50.10
2019-04-29T02:29:25.550Z,50.10
2019-04-29T02:33:31.237Z,49.80
2019-04-29T02:37:42.049Z,51.00
2019-04-29T02:41:56.142Z,50.40
2019-04-29T02:46:02.293Z,50.30
2019-04-29T02:50:08.105Z,51.70
2019-04-29T02:54:13.818Z,51.00
2019-04-29T02:58:32.304Z,50.80
2019-04-29T03:02:49.831Z,51.20
2019-04-29T03:06:55.537Z,50.90
2019-04-29T03:11:01.237Z,51.30
2019-04-29T03:15:08.713Z,51.30
2019-04-29T03:19:30.003Z,51.40
2019-04-29T03:23:35.690Z,52.60
2019-04-29T03:27:44.142Z,54.60
2019-04-29T03:31:50.343Z,51.40
2019-04-29T03:35:56.066Z,51.70
2019-04-29T03:40:01.792Z,55.10
2019-04-29T03:44:07.472Z,53.40
2019-04-29T03:48:13.136Z,53.90
2019-04-29T03:52:18.823Z,52.10
2019-04-29T03:56:24.488Z,53.60
2019-04-29T04:00:30.114Z,54.10
2019-04-29T04:05:13.020Z,52.10
2019-04-29T04:09:21.019Z,54.90
2019-04-29T04:13:26.743Z,53.10
2019-04-29T04:17:52.120Z,55.90
2019-04-29T04:21:58.320Z,57.30
2019-04-29T04:26:04.033Z,55.80
2019-04-29T04:30:10.740Z,56.30
2019-04-29T04:34:16.355Z,55.50
2019-04-29T04:38:22.225Z,56.40
2019-04-29T04:42:30.120Z,58.70
2019-04-29T04:46:37.620Z,54.60
2019-04-29T04:50:43.243Z,56.70
2019-04-29T04:54:50.902Z,54.80
2019-04-29T04:58:57.147Z,56.00
2019-04-29T05:03:02.820Z,55.00
2019-04-29T05:07:08.837Z,60.80
2019-04-29T05:11:15.271Z,56.50
2019-04-29T05:15:20.920Z,58.70
2019-04-29T05:19:26.646Z,57.20
2019-04-29T05:23:32.338Z,56.50
2019-04-29T05:27:41.007Z,56.50
2019-04-29T05:31:46.633Z,56.00
2019-04-29T05:36:02.017Z,57.20
2019-04-29T05:40:05.729Z,56.40
2019-04-29T05:44:20.107Z,61.00
2019-04-29T05:48:27.691Z,60.20
2019-04-29T05:52:51.359Z,57.70
2019-04-29T05:56:56.997Z,61.70
2019-04-29T06:01:07.362Z,59.50
2019-04-29T06:05:12.997Z,59.20
2019-04-29T06:09:18.680Z,64.30
2019-04-29T06:13:24.310Z,59.10
2019-04-29T06:17:30.136Z,62.50
2019-04-29T06:21:37.526Z,58.90
2019-04-29T06:25:43.353Z,61.10
2019-04-29T06:29:49.077Z,59.90
2019-04-29T06:33:54.678Z,61.50
2019-04-29T06:38:00.463Z,63.70
2019-04-29T06:42:06.141Z,62.90
2019-04-29T06:46:11.985Z,64.60
2019-04-29T06:50:17.626Z,62.40
2019-04-29T06:54:23.224Z,63.50
2019-04-29T06:58:32.517Z,68.90
2019-04-29T07:02:36.145Z,64.90
2019-04-29T07:06:41.781Z,66.00
2019-04-29T07:10:47.423Z,63.00
2019-04-29T07:14:53.052Z,61.10
2019-04-29T07:18:58.724Z,64.40
2019-04-29T07:23:04.354Z,63.20
2019-04-29T07:27:10.211Z,63.90
2019-04-29T07:31:15.775Z,63.50
2019-04-29T07:35:21.499Z,65.20
2019-04-29T07:39:31.699Z,64.30
2019-04-29T07:43:38.290Z,62.40
2019-04-29T07:47:55.899Z,61.70
2019-04-29T07:51:50.153Z,66.60
2019-04-29T07:55:55.848Z,68.00
2019-04-29T08:00:01.957Z,64.60
2019-04-29T08:04:09.136Z,66.80
2019-04-29T08:08:16.782Z,66.50
2019-04-29T08:12:21.952Z,65.70
2019-04-29T08:16:27.592Z,62.00
2019-04-29T08:20:35.545Z,66.10
2019-04-29T08:24:41.257Z,68.40
2019-04-29T08:28:47.177Z,67.30
2019-04-29T08:32:52.766Z,63.70
2019-04-29T08:36:59.452Z,67.80
2019-04-29T08:41:05.164Z,67.30
2019-04-29T08:45:17.742Z,63.30
2019-04-29T08:49:23.503Z,64.70
2019-04-29T08:53:29.146Z,66.40
2019-04-29T08:57:36.560Z,64.50
2019-04-29T09:01:42.153Z,66.20
2019-04-29T09:06:03.880Z,65.90
2019-04-29T09:09:56.136Z,67.60
2019-04-29T09:14:02.263Z,66.70
2019-04-29T09:18:10.825Z,65.40
2019-04-29T09:22:17.893Z,63.80
2019-04-29T09:26:42.454Z,63.20
2019-04-29T09:30:48.794Z,63.50
2019-04-29T09:34:55.445Z,61.90
2019-04-29T09:39:02.257Z,62.50
2019-04-29T09:43:28.239Z,63.00
2019-04-29T09:47:34.261Z,63.10
2019-04-29T09:51:39.865Z,61.50
2019-04-29T09:55:45.511Z,62.80
2019-04-29T10:00:00.168Z,62.50
2019-04-29T10:04:21.193Z,60.90
2019-04-29T10:08:26.756Z,60.90
2019-04-29T10:12:32.392Z,61.70
2019-04-29T10:16:53.248Z,62.00
2019-04-29T10:21:08.246Z,60.80
2019-04-29T10:25:14.388Z,60.80
2019-04-29T10:29:21.826Z,60.70
2019-04-29T10:33:27.414Z,60.90
2019-04-29T10:37:33.078Z,59.30
2019-04-29T10:41:42.413Z,59.60
2019-04-29T10:46:25.345Z,59.00
2019-04-29T10:50:33.310Z,59.70
2019-04-29T10:54:39.024Z,61.10
2019-04-29T10:58:44.693Z,60.50
2019-04-29T11:02:51.657Z,60.30
2019-04-29T11:07:13.284Z,60.30
2019-04-29T11:11:22.079Z,60.50
2019-04-29T11:15:19.339Z,60.80
2019-04-29T11:19:24.904Z,61.40
2019-04-29T11:23:54.871Z,60.20
2019-04-29T11:28:00.002Z,59.70
2019-04-29T11:32:10.710Z,59.70
2019-04-29T11:36:17.043Z,59.50
2019-04-29T11:40:26.106Z,58.40
2019-04-29T11:44:31.849Z,59.70
2019-04-29T11:48:37.567Z,59.00
2019-04-29T11:52:43.323Z,58.50
2019-04-29T11:56:48.979Z,59.40
2019-04-29T12:01:10.913Z,58.50
2019-04-29T12:05:47.699Z,61.10
2019-04-29T12:09:53.387Z,60.00
2019-04-29T12:14:26.790Z,57.30
2019-04-29T12:18:38.172Z,57.60
2019-04-29T12:22:48.653Z,57.60
2019-04-29T12:26:50.732Z,58.00
2019-04-29T12:30:59.785Z,58.10
2019-04-29T12:35:30.128Z,58.00
2019-04-29T12:40:09.719Z,58.20
2019-04-29T12:44:17.897Z,56.70
2019-04-29T12:48:25.231Z,59.30
2019-04-29T12:52:30.744Z,59.30
2019-04-29T12:56:38.284Z,59.10
2019-04-29T13:00:48.225Z,58.90
2019-04-29T13:05:19.320Z,57.80
2019-04-29T13:09:34.872Z,57.30
2019-04-29T13:13:40.988Z,58.40
2019-04-29T13:18:03.145Z,59.20
2019-04-29T13:22:03.894Z,57.40
2019-04-29T13:26:09.588Z,57.80
2019-04-29T13:30:16.417Z,56.80
2019-04-29T13:34:33.190Z,57.90
2019-04-29T13:38:36.049Z,57.30
2019-04-29T13:42:48.498Z,57.30
2019-04-29T13:47:06.719Z,56.90
2019-04-29T13:51:34.561Z,57.10
2019-04-29T13:55:47.197Z,58.00
2019-04-29T13:59:56.009Z,57.50
2019-04-29T14:04:26.027Z,57.90
2019-04-29T14:08:31.827Z,57.70
2019-04-29T14:13:05.161Z,59.20
2019-04-29T14:16:47.628Z,58.40
2019-04-29T14:20:54.873Z,57.50
2019-04-29T14:25:00.799Z,57.10
2019-04-29T14:29:06.477Z,57.20
2019-04-29T14:33:13.918Z,56.80
2019-04-29T14:37:24.653Z,56.50
2019-04-29T14:41:28.782Z,57.10
2019-04-29T14:45:56.014Z,58.30
2019-04-29T14:50:03.991Z,58.40
2019-04-29T14:54:11.876Z,57.70
2019-04-29T14:58:18.612Z,57.80
2019-04-29T15:02:39.162Z,58.00
2019-04-29T15:06:44.870Z,57.60
2019-04-29T15:10:53.240Z,58.00
2019-04-29T15:15:17.656Z,57.30
2019-04-29T15:19:43.806Z,58.10
2019-04-29T15:23:47.858Z,58.10
2019-04-29T15:27:53.907Z,58.00
2019-04-29T15:31:59.567Z,57.30
2019-04-29T15:36:05.257Z,58.50
2019-04-29T15:40:11.187Z,59.50
2019-04-29T15:44:22.246Z,58.00
2019-04-29T15:48:24.760Z,58.40
2019-04-29T15:52:30.372Z,58.30
2019-04-29T15:56:38.788Z,58.80
2019-04-29T16:00:43.411Z,58.00
2019-04-29T16:04:55.600Z,58.00
2019-04-29T16:09:23.518Z,58.20
2019-04-29T16:13:29.583Z,58.20
2019-04-29T16:21:42.688Z,59.60
2019-04-29T16:25:52.427Z,58.30
2019-04-29T16:29:55.596Z,58.60
2019-04-29T16:34:01.287Z,59.60
2019-04-29T16:38:11.629Z,58.70
2019-04-29T16:42:26.076Z,59.10
2019-04-29T16:46:37.568Z,59.70
2019-04-29T16:50:40.511Z,58.60
2019-04-29T16:54:46.299Z,57.60
2019-04-29T16:58:51.948Z,57.90
2019-04-29T17:02:59.214Z,57.90
2019-04-29T17:07:14.006Z,58.10
2019-04-29T17:11:22.005Z,58.70
2019-04-29T17:15:27.866Z,58.90
2019-04-29T17:19:33.461Z,58.90
2019-04-29T17:23:39.118Z,58.20
2019-04-29T17:28:12.440Z,59.40
2019-04-29T17:32:48.705Z,60.80
2019-04-29T17:35:15.562Z,57.30
2019-04-29T17:36:54.534Z,60.30
2019-04-29T17:41:00.599Z,58.70
2019-04-29T17:45:12.333Z,58.10
2019-04-29T17:49:30.697Z,59.60
2019-04-29T17:53:46.076Z,59.70
2019-04-29T17:57:57.277Z,59.50
2019-04-29T18:02:25.515Z,58.90
2019-04-29T18:06:58.709Z,60.10
2019-04-29T18:11:06.482Z,59.00
2019-04-29T18:15:17.426Z,60.00
2019-04-29T18:19:30.951Z,61.70
2019-04-29T18:23:56.755Z,60.60
2019-04-29T18:28:00.586Z,60.10
2019-04-29T18:32:08.076Z,59.60
2019-04-29T18:36:21.860Z,59.60
2019-04-29T18:40:21.499Z,61.30
2019-04-29T18:44:27.384Z,59.70
2019-04-29T18:48:35.361Z,61.30
2019-04-29T18:52:41.180Z,61.20
2019-04-29T18:56:47.463Z,61.30
2019-04-29T19:00:56.082Z,60.70
2019-04-29T19:05:15.033Z,60.70
2019-04-29T19:09:25.270Z,60.60
2019-04-29T19:13:32.465Z,60.50
2019-04-29T19:17:40.018Z,59.40
2019-04-29T19:21:47.510Z,59.60
2019-04-29T19:25:53.351Z,61.20
2019-04-29T19:29:59.159Z,60.50
2019-04-29T19:34:05.563Z,61.10
2019-04-29T19:38:13.471Z,62.20
2019-04-29T19:42:28.581Z,64.20
2019-04-29T19:46:36.738Z,63.60
2019-04-29T19:50:36.294Z,60.90
2019-04-29T19:54:42.752Z,60.70
2019-04-29T19:58:50.514Z,61.60
2019-04-29T20:02:57.284Z,61.90
2019-04-29T20:07:07.277Z,63.50
2019-04-29T20:11:14.290Z,61.90
2019-04-29T20:15:18.588Z,60.90
2019-04-29T20:19:32.447Z,63.40
2019-04-29T20:23:39.382Z,61.40
2019-04-29T20:27:46.034Z,63.00
2019-04-29T20:31:56.081Z,62.10
2019-04-29T20:36:02.401Z,59.90
2019-04-29T20:40:08.669Z,61.80
2019-04-29T20:44:16.254Z,60.50
2019-04-29T20:48:22.432Z,59.70
2019-04-29T20:52:43.277Z,62.20
2019-04-29T20:56:56.352Z,63.00
2019-04-29T21:01:02.988Z,63.00
2019-04-29T21:05:06.560Z,62.80
2019-04-29T21:09:12.357Z,61.60
2019-04-29T21:13:38.604Z,62.90
2019-04-29T21:17:45.331Z,62.60
2019-04-29T21:21:51.370Z,62.10
2019-04-29T21:26:00.432Z,61.60
2019-04-29T21:30:04.995Z,63.10
2019-04-29T21:34:11.650Z,62.30
2019-04-29T21:38:35.204Z,62.10
2019-04-29T21:42:49.115Z,63.30
2019-04-29T21:46:59.510Z,64.10
2019-04-29T21:51:06.754Z,64.10
2019-04-29T21:55:10.415Z,63.00
2019-04-29T21:59:17.511Z,60.80
2019-04-29T22:03:24.587Z,64.30
2019-04-29T22:07:30.585Z,63.80
2019-04-29T22:11:43.024Z,62.10
2019-04-29T22:15:45.491Z,63.80
2019-04-29T22:19:50.948Z,65.80
2019-04-29T22:23:56.634Z,64.40
2019-04-29T22:28:02.284Z,63.00
2019-04-29T22:32:14.446Z,64.90
2019-04-29T22:36:18.145Z,63.50
2019-04-29T22:40:22.596Z,65.20
2019-04-29T22:44:28.334Z,63.80
2019-04-29T22:48:34.892Z,64.60
2019-04-29T22:52:40.558Z,66.40
2019-04-29T22:56:52.118Z,65.20
2019-04-29T23:00:53.965Z,63.80
2019-04-29T23:05:00.591Z,63.30
2019-04-29T23:09:07.597Z,65.80
2019-04-29T23:13:14.006Z,66.60
2019-04-29T23:17:19.651Z,66.80
2019-04-29T23:21:46.827Z,65.10
2019-04-29T23:25:53.010Z,64.10
2019-04-29T23:29:58.690Z,67.00
2019-04-29T23:34:05.781Z,67.20
2019-04-29T23:38:12.741Z,66.30
2019-04-29T23:42:19.938Z,66.10
2019-04-29T23:46:29.689Z,65.00
2019-04-29T23:50:33.106Z,64.20
2019-04-29T23:54:44.740Z,67.60
2019-04-29T23:58:55.463Z,67.70
